Time;durP1;ratioP1;P1;durP2;ratioP2;P2;SDS_P1;SDS_P2;PMS_P1;PMS_P2;Temp;Humidity;BMP_temperature;BMP_pressure;BME280_temperature;BME280_humidity;BME280_pressure;Samples;Min_cycle;Max_cycle;Signal;HPM_P1;HPM_P2
2021/07/04 00:01:39;;;;;;;6.88;5.85;;;;;;;22.73;55.12;99770.88;10428576;28;20060;-61
2021/07/04 00:06:40;;;;;;;6.80;6.13;;;;;;;;;;10418429;28;20110;-61
2021/07/04 00:11:42;;;;;;;6.60;5.93;;;;;;;22.71;55.25;99772.13;10421018;28;20056;-63
2021/07/04 00:16:44;;;;;;;8.10;5.95;;;;;;;22.65;55.48;99759.41;10415419;28;20055;-64
2021/07/04 00:21:46;;;;;;;6.03;5.53;;;;;;;22.51;55.82;99767.59;10417187;28;20473;-61
2021/07/04 00:26:48;;;;;;;6.00;4.93;;;;;;;22.41;55.39;99765.34;10436661;28;20158;-62
2021/07/04 00:31:49;;;;;;;8.50;4.65;;;;;;;22.20;57.15;99766.41;10427067;28;20049;-62
2021/07/04 00:36:51;;;;;;;5.95;5.43;;;;;;;22.02;58.22;99747.25;10423834;28;20052;-62
2021/07/04 00:41:52;;;;;;;5.95;5.45;;;;;;;21.96;58.97;99764.34;10421492;28;20409;-63
2021/07/04 00:46:54;;;;;;;6.30;5.32;;;;;;;21.85;59.49;99757.69;10426457;28;20049;-63
2021/07/04 00:51:56;;;;;;;5.63;5.00;;;;;;;21.79;59.70;99759.34;10421643;28;20099;-61
2021/07/04 00:56:57;;;;;;;6.22;5.65;;;;;;;21.57;60.74;99756.03;10417661;28;20056;-61
2021/07/04 01:01:59;;;;;;;6.50;5.82;;;;;;;21.50;62.06;99745.19;10423239;28;20045;-60
2021/07/04 01:07:02;;;;;;;6.65;5.82;;;;;;;21.58;61.53;99744.16;10408669;28;20321;-62
2021/07/04 01:12:04;;;;;;;6.20;5.68;;;;;;;21.37;63.63;99734.31;10427765;28;20087;-61
2021/07/04 01:17:06;;;;;;;7.25;5.20;;;;;;;21.28;63.83;99741.81;10422063;28;20509;-60
2021/07/04 01:22:11;;;;;;;6.85;6.25;;;;;;;21.17;65.03;99740.53;10425901;28;20046;-61
2021/07/04 01:27:13;;;;;;;7.07;6.38;;;;;;;21.15;66.09;99741.78;10428697;28;20517;-61
2021/07/04 01:32:14;;;;;;;6.40;5.78;;;;;;;21.10;67.03;99728.03;10422464;28;20052;-62
2021/07/04 01:37:16;;;;;;;7.95;5.10;;;;;;;21.01;67.41;99725.50;10407455;28;20045;-62
2021/07/04 01:42:18;;;;;;;6.07;5.57;;;;;;;20.89;68.55;99737.97;10426590;28;20060;-65
2021/07/04 01:47:20;;;;;;;7.00;6.28;;;;;;;20.72;68.92;99732.09;10427615;28;20045;-62
2021/07/04 01:52:21;;;;;;;6.50;5.90;;;;;;;20.72;69.52;99725.88;10409649;28;20052;-64
2021/07/04 01:57:24;;;;;;;6.40;5.80;;;;;;;20.77;68.32;99724.19;10420381;28;20060;-60
2021/07/04 02:02:26;;;;;;;6.57;5.95;;;;;;;20.70;69.53;99726.03;10402730;28;20056;-62
2021/07/04 02:07:27;;;;;;;7.40;6.55;;;;;;;20.75;69.74;99723.59;10418255;28;20050;-62
2021/07/04 02:12:29;;;;;;;7.05;6.07;;;;;;;20.62;70.62;99726.22;10489581;22;20087;-57
2021/07/04 02:17:34;;;;;;;9.07;6.20;;;;;;;20.61;70.59;99719.97;10504342;28;20051;-56
2021/07/04 02:22:36;;;;;;;6.60;6.00;;;;;;;20.61;70.17;99713.72;10505453;28;20150;-56
2021/07/04 02:27:38;;;;;;;6.05;5.45;;;;;;;20.53;70.93;99708.50;10505634;28;20059;-57
2021/07/04 02:32:39;;;;;;;6.13;5.47;;;;;;;20.63;70.33;99725.19;10504729;28;20140;-56
2021/07/04 02:37:42;;;;;;;6.38;5.78;;;;;;;20.67;70.28;99723.75;10510353;28;20052;-60
2021/07/04 02:42:43;;;;;;;6.53;5.95;;;;;;;20.48;71.17;99718.03;10513148;28;20055;-57
2021/07/04 02:47:46;;;;;;;7.47;5.88;;;;;;;20.56;70.21;99735.13;10506690;28;20565;-55
2021/07/04 02:52:52;;;;;;;6.10;5.50;;;;;;;20.48;70.46;99736.97;10509115;28;20048;-57
2021/07/04 02:57:54;;;;;;;7.13;5.53;;;;;;;20.49;71.18;99743.19;10509947;28;20040;-56
2021/07/04 03:02:56;;;;;;;5.82;5.32;;;;;;;20.29;71.96;99735.00;10505986;28;20040;-57
2021/07/04 03:07:57;;;;;;;6.57;5.85;;;;;;;20.32;72.40;99753.50;10506496;28;20044;-58
2021/07/04 03:12:59;;;;;;;6.75;6.03;;;;;;;20.30;72.04;99733.97;10512168;28;20059;-56
2021/07/04 03:18:00;;;;;;;7.00;6.25;;;;;;;20.31;71.77;99741.88;10510813;28;20040;-56
2021/07/04 03:23:02;;;;;;;8.07;6.28;;;;;;;20.29;72.35;99738.53;10506488;28;20397;-56
2021/07/04 03:28:04;;;;;;;5.93;5.32;;;;;;;20.31;71.78;99751.84;10510480;28;20469;-57
2021/07/04 03:33:06;;;;;;;6.63;5.93;;;;;;;20.02;72.37;99718.63;10487572;28;20059;-56
2021/07/04 03:38:07;;;;;;;6.30;5.32;;;;;;;20.19;72.24;99729.13;10510080;28;20496;-57
2021/07/04 03:43:09;;;;;;;7.18;6.45;;;;;;;20.17;72.59;99742.00;10501569;28;20442;-57
2021/07/04 03:48:10;;;;;;;7.20;6.20;;;;;;;20.24;73.11;99748.28;10509332;28;20103;-56
2021/07/04 03:53:12;;;;;;;5.88;5.28;;;;;;;20.17;72.98;99745.53;10510296;28;20055;-55
2021/07/04 03:58:14;;;;;;;6.15;5.40;;;;;;;20.16;72.54;99743.03;10512582;28;20671;-57
2021/07/04 04:03:15;;;;;;;6.20;5.60;;;;;;;20.24;72.95;99751.00;10505480;28;20048;-55
2021/07/04 04:08:17;;;;;;;6.75;6.05;;;;;;;20.17;73.54;99747.41;10485303;28;20051;-55
2021/07/04 04:13:19;;;;;;;7.50;5.82;;;;;;;20.14;73.54;99744.03;10512443;28;20360;-56
2021/07/04 04:18:21;;;;;;;5.97;5.40;;;;;;;20.29;72.41;99737.69;10511943;28;20048;-56
2021/07/04 04:23:23;;;;;;;6.72;5.97;;;;;;;20.27;72.76;99739.78;10513626;28;20062;-56
2021/07/04 04:28:25;;;;;;;6.38;5.78;;;;;;;20.30;72.91;99753.72;10512849;28;20055;-57
2021/07/04 04:33:27;;;;;;;6.70;6.05;;;;;;;20.21;73.06;99725.19;10513374;28;20263;-56
2021/07/04 04:38:28;;;;;;;6.57;5.97;;;;;;;20.18;73.21;99735.56;10513193;28;20393;-56
2021/07/04 04:43:30;;;;;;;9.18;6.40;;;;;;;20.27;73.40;99734.38;10509355;28;20177;-57
2021/07/04 04:48:31;;;;;;;8.23;6.63;;;;;;;20.34;73.22;99732.50;10489646;28;20055;-57
2021/07/04 04:53:33;;;;;;;6.13;5.63;;;;;;;20.32;72.50;99748.09;10496645;28;20054;-57
2021/07/04 04:58:35;;;;;;;5.65;5.10;;;;;;;20.32;72.82;99740.00;10515885;28;20062;-56
2021/07/04 05:03:36;;;;;;;6.55;5.95;;;;;;;20.32;73.41;99742.69;10499154;28;20052;-56
2021/07/04 05:08:38;;;;;;;6.60;5.97;;;;;;;20.34;72.88;99740.63;10509278;28;20741;-57
2021/07/04 05:13:39;;;;;;;6.80;6.13;;;;;;;20.23;72.69;99690.69;10507933;28;20117;-56
2021/07/04 05:18:41;;;;;;;6.07;5.57;;;;;;;20.41;72.40;99740.66;10511851;28;20063;-56
2021/07/04 05:23:42;;;;;;;7.45;6.75;;;;;;;20.44;73.06;99741.09;10517027;28;20128;-57
2021/07/04 05:28:44;;;;;;;6.65;6.03;;;;;;;20.39;73.16;99737.34;10506794;28;20052;-55
2021/07/04 05:33:46;;;;;;;6.63;5.97;;;;;;;20.38;72.56;99722.16;10513264;28;20052;-57
2021/07/04 05:38:47;;;;;;;7.13;5.85;;;;;;;20.60;72.26;99720.19;10512601;28;20425;-56
2021/07/04 05:43:49;;;;;;;8.25;6.15;;;;;;;20.62;72.45;99727.03;10512038;28;20294;-56
2021/07/04 05:48:51;;;;;;;6.63;5.93;;;;;;;20.80;71.61;99718.38;10510219;28;20059;-55
2021/07/04 05:53:52;;;;;;;7.90;6.22;;;;;;;20.75;72.13;99720.88;10503755;28;20051;-54
2021/07/04 05:58:54;;;;;;;8.13;7.35;;;;;;;20.64;72.06;99697.09;10503946;28;20044;-55
2021/07/04 06:03:58;;;;;;;7.05;5.68;;;;;;;20.93;71.31;99706.78;10503180;28;20436;-57
2021/07/04 06:09:00;;;;;;;6.38;5.75;;;;;;;20.96;70.87;99713.66;10495740;28;20044;-56
2021/07/04 06:14:02;;;;;;;7.25;6.55;;;;;;;21.06;70.40;99705.97;10498310;28;20131;-55
2021/07/04 06:19:03;;;;;;;7.15;6.45;;;;;;;21.15;70.12;99704.75;10515921;28;20672;-55
2021/07/04 06:24:05;;;;;;;6.47;5.80;;;;;;;21.24;70.01;99705.34;10509402;28;20047;-54
2021/07/04 06:29:07;;;;;;;6.90;6.30;;;;;;;21.21;70.37;99704.94;10518282;28;20044;-55
2021/07/04 06:34:08;;;;;;;6.38;5.75;;;;;;;21.11;70.50;99698.06;10519935;28;20416;-56
2021/07/04 06:39:10;;;;;;;7.18;6.18;;;;;;;21.15;70.50;99702.03;10518344;28;20052;-55
2021/07/04 06:44:11;;;;;;;7.72;6.95;;;;;;;21.21;70.12;99696.84;10500937;28;20055;-56
2021/07/04 06:49:13;;;;;;;7.90;5.55;;;;;;;21.42;69.20;99695.81;10517897;28;20508;-55
2021/07/04 06:54:15;;;;;;;6.18;5.45;;;;;;;21.52;68.61;99696.25;10516265;28;20849;-54
2021/07/04 06:59:16;;;;;;;7.47;6.78;;;;;;;21.62;68.76;99693.09;10518938;28;20078;-54
2021/07/04 07:04:18;;;;;;;7.95;6.95;;;;;;;21.66;68.10;99694.34;10519717;28;20548;-54
2021/07/04 07:09:19;;;;;;;7.05;6.40;;;;;;;21.82;68.02;99688.50;10517496;28;20051;-56
2021/07/04 07:14:21;;;;;;;8.82;6.22;;;;;;;21.97;67.19;99690.16;10503456;28;20444;-57
2021/07/04 07:19:23;;;;;;;7.15;6.45;;;;;;;22.02;67.04;99680.34;10519362;28;20048;-55
2021/07/04 07:24:24;;;;;;;7.60;6.18;;;;;;;21.95;67.01;99674.13;10522385;28;20068;-56
2021/07/04 07:29:26;;;;;;;7.72;5.35;;;;;;;22.33;66.40;99672.56;10516541;28;20054;-56
2021/07/04 07:34:28;;;;;;;7.18;6.50;;;;;;;22.54;64.40;99668.72;10525086;28;20850;-57
2021/07/04 07:39:29;;;;;;;6.68;5.43;;;;;;;22.66;63.93;99660.72;10521280;28;20619;-56
2021/07/04 07:44:31;;;;;;;6.57;5.40;;;;;;;23.28;63.23;99663.66;10528287;28;20044;-55
2021/07/04 07:49:33;;;;;;;6.07;5.38;;;;;;;23.70;60.24;99661.19;10523421;28;20048;-55
2021/07/04 07:54:35;;;;;;;6.57;4.88;;;;;;;23.94;59.46;99667.66;10526078;28;20047;-55
2021/07/04 07:59:37;;;;;;;6.67;6.07;;;;;;;23.74;58.29;99656.16;10500398;28;20055;-57
2021/07/04 08:04:39;;;;;;;6.57;5.88;;;;;;;23.78;59.75;99649.19;10518300;28;20060;-55
2021/07/04 08:09:40;;;;;;;7.50;6.75;;;;;;;23.77;59.44;99661.13;10510237;22;20154;-63
2021/07/04 08:14:42;;;;;;;5.97;5.45;;;;;;;24.05;58.90;99657.09;10426736;28;20052;-64
2021/07/04 08:19:44;;;;;;;6.28;5.68;;;;;;;24.44;58.35;99649.50;10425492;28;20505;-63
2021/07/04 08:24:47;;;;;;;;;;;;;;;24.84;57.60;99638.91;10428431;28;20060;-63
2021/07/04 08:29:52;;;;;;;7.47;5.75;;;;;;;25.11;57.39;99640.41;10425929;28;19928;-64
2021/07/04 08:34:53;;;;;;;6.47;5.22;;;;;;;25.45;56.16;99638.00;10425100;28;20061;-64
2021/07/04 08:39:55;;;;;;;7.53;6.68;;;;;;;25.52;55.18;99627.78;10425129;28;20045;-63
2021/07/04 08:44:56;;;;;;;5.53;5.00;;;;;;;25.79;54.11;99619.13;10425138;28;20060;-64
2021/07/04 08:49:58;;;;;;;6.90;5.60;;;;;;;26.02;52.73;99607.41;10400747;28;20049;-64
2021/07/04 08:55:02;;;;;;;7.25;5.78;;;;;;;26.40;51.95;99605.94;10401276;28;20465;-63
2021/07/04 09:00:06;;;;;;;5.93;5.32;;;;;;;26.58;50.56;99607.66;10423930;28;20048;-64
2021/07/04 09:05:10;;;;;;;6.93;6.32;;;;;;;26.88;49.62;99595.66;10403293;28;20045;-63
2021/07/04 09:10:19;;;;;;;6.28;5.68;;;;;;;27.08;49.94;99589.69;10403664;28;20652;-63
2021/07/04 09:15:25;;;;;;;5.47;5.05;;;;;;;27.64;48.63;99570.59;10424792;28;20040;-63
2021/07/04 09:20:30;;;;;;;4.90;4.50;;;;;;;28.04;46.85;99561.28;10423307;28;20633;-63
2021/07/04 09:25:37;;;;;;;6.93;6.32;;;;;;;28.20;45.92;99554.88;10420755;28;20053;-64
2021/07/04 09:30:42;;;;;;;5.88;5.28;;;;;;;28.40;45.66;99553.44;10420627;28;20052;-63
2021/07/04 09:35:55;;;;;;;5.63;4.95;;;;;;;28.63;44.86;99543.28;10423409;28;20418;-66
2021/07/04 09:40:58;;;;;;;7.85;5.97;;;;;;;29.08;44.28;99545.56;10423288;28;20533;-64
2021/07/04 09:46:06;;;;;;;;;;;;;;;29.22;44.25;99543.22;10415717;28;20037;-63
2021/07/04 09:51:14;;;;;;;5.18;4.70;;;;;;;29.23;45.31;99536.66;10422139;28;19967;-65
2021/07/04 09:56:23;;;;;;;6.65;6.05;;;;;;;28.95;45.05;99526.03;10425637;28;20064;-63
2021/07/04 10:01:47;;;;;;;6.25;5.75;;;;;;;29.06;44.51;99519.53;10416874;28;20049;-62
2021/07/04 10:06:50;;;;;;;5.65;5.15;;;;;;;28.93;45.04;99518.09;10419351;28;20045;-64
2021/07/04 10:11:52;;;;;;;6.25;5.75;;;;;;;29.33;43.24;99515.88;10421618;28;20494;-63
2021/07/04 10:16:54;;;;;;;5.53;5.13;;;;;;;29.40;41.88;99516.47;10422255;28;20060;-64
2021/07/04 10:22:00;;;;;;;5.63;5.13;;;;;;;29.29;40.35;99509.28;10421046;28;20579;-64
2021/07/04 10:27:05;;;;;;;5.70;5.20;;;;;;;30.07;40.73;99500.28;10423819;28;20041;-62
2021/07/04 10:32:08;;;;;;;6.88;5.22;;;;;;;30.29;38.86;99487.16;10403335;28;20075;-63
2021/07/04 10:37:12;;;;;;;5.32;4.85;;;;;;;30.42;39.68;99474.03;10418957;28;20562;-64
2021/07/04 10:42:14;;;;;;;5.70;5.20;;;;;;;30.58;39.45;99472.09;10420523;28;20540;-63
2021/07/04 10:47:20;;;;;;;5.80;4.30;;;;;;;30.90;38.87;99460.00;10420666;28;20175;-64
2021/07/04 10:52:38;;;;;;;7.47;5.22;;;;;;;31.08;37.25;99453.94;10397793;28;20045;-63
2021/07/04 10:57:48;;;;;;;4.90;4.50;;;;;;;30.66;38.14;99442.16;10427100;28;20190;-63
2021/07/04 11:03:05;;;;;;;5.32;4.82;;;;;;;30.31;38.88;99429.22;10428775;28;20045;-64
2021/07/04 11:08:18;;;;;;;5.38;4.88;;;;;;;29.49;40.65;99440.03;10426328;28;20053;-63
2021/07/04 11:13:19;;;;;;;4.90;4.57;;;;;;;29.51;39.96;99441.41;10429277;28;20041;-63
2021/07/04 11:18:21;;;;;;;5.13;4.63;;;;;;;29.49;39.30;99429.91;10410644;28;20041;-63
2021/07/04 11:23:30;;;;;;;6.38;5.78;;;;;;;29.61;38.44;99424.19;10429006;28;20053;-63
2021/07/04 11:28:36;;;;;;;4.93;4.53;;;;;;;29.91;38.31;99419.91;10429715;28;20040;-63
2021/07/04 11:33:40;;;;;;;5.18;3.90;;;;;;;30.10;38.19;99420.16;10427776;28;20068;-63
2021/07/04 11:38:41;;;;;;;4.78;4.38;;;;;;;29.36;38.31;99420.25;10425859;28;20045;-63
2021/07/04 11:43:44;;;;;;;5.80;5.20;;;;;;;28.77;40.71;99413.09;10423062;28;20046;-62
2021/07/04 11:49:04;;;;;;;5.97;5.47;;;;;;;27.94;42.60;99402.50;10419472;28;20049;-62
2021/07/04 11:54:07;;;;;;;5.78;4.97;;;;;;;27.22;45.25;99399.81;10402570;28;20044;-62
2021/07/04 11:59:12;;;;;;;5.65;5.03;;;;;;;26.88;48.93;99427.19;10412164;28;20040;-62
2021/07/04 12:04:14;;;;;;;5.75;5.25;;;;;;;26.03;52.86;99454.47;10426609;28;20646;-62
2021/07/04 12:09:16;;;;;;;5.22;4.82;;;;;;;25.73;54.09;99463.69;10423209;28;22989;-63
2021/07/04 12:14:30;;;;;;;6.13;4.35;;;;;;;25.23;54.41;99466.97;10426905;28;20049;-62
2021/07/04 12:19:34;;;;;;;2.92;1.95;;;;;;;24.70;51.41;99477.75;10416180;28;20041;-63
2021/07/04 12:24:39;;;;;;;1.88;1.60;;;;;;;24.66;50.37;99462.97;10418118;28;20044;-62
2021/07/04 12:30:01;;;;;;;1.75;1.50;;;;;;;24.68;50.11;99470.88;10409210;28;20047;-62
2021/07/04 12:35:05;;;;;;;2.92;2.70;;;;;;;24.59;50.97;99473.16;10425175;28;20049;-62
2021/07/04 12:40:11;;;;;;;4.30;2.45;;;;;;;24.46;50.96;99462.44;10423226;28;20403;-62
2021/07/04 12:45:16;;;;;;;3.53;2.70;;;;;;;24.36;51.62;99468.44;10425016;28;20037;-61
2021/07/04 12:50:17;;;;;;;2.80;2.60;;;;;;;24.30;51.89;99497.38;10420042;28;20060;-62
2021/07/04 12:55:40;;;;;;;3.63;3.33;;;;;;;23.95;54.78;99511.69;10428207;28;20737;-63
2021/07/04 13:00:42;;;;;;;4.30;3.90;;;;;;;23.30;58.98;99569.25;10420788;28;20049;-62
2021/07/04 13:05:43;;;;;;;10.32;6.13;;;;;;;22.30;72.28;99597.88;10421886;28;20521;-62
2021/07/04 13:10:45;;;;;;;9.75;5.05;;;;;;;21.23;78.11;99603.56;10423697;28;20550;-62
2021/07/04 13:15:46;;;;;;;5.13;4.07;;;;;;;20.78;82.05;99582.53;10415948;28;20041;-61
2021/07/04 13:20:48;;;;;;;3.85;2.95;;;;;;;21.13;81.38;99590.44;10414888;28;20150;-61
2021/07/04 13:25:54;;;;;;;4.25;3.33;;;;;;;21.02;75.43;99591.09;10425175;28;20458;-63
2021/07/04 13:30:57;;;;;;;3.15;2.80;;;;;;;21.02;77.10;99586.50;10420780;28;20486;-61
2021/07/04 13:36:28;;;;;;;3.92;2.60;;;;;;;21.09;77.31;99569.44;10421456;28;20040;-61
2021/07/04 13:41:31;;;;;;;4.40;3.05;;;;;;;21.06;82.48;99557.16;10390044;28;20052;-61
2021/07/04 13:46:36;;;;;;;3.17;2.50;;;;;;;21.27;78.43;99541.72;10416014;28;20710;-60
2021/07/04 13:51:38;;;;;;;5.03;2.95;;;;;;;21.37;82.29;99534.00;10419876;28;20512;-61
2021/07/04 13:56:40;;;;;;;4.35;3.22;;;;;;;21.22;78.77;99500.94;10422786;28;20097;-61
2021/07/04 14:01:41;;;;;;;4.32;3.78;;;;;;;21.13;85.10;99500.34;10401824;28;20056;-61
2021/07/04 14:06:43;;;;;;;3.75;3.45;;;;;;;21.36;84.48;99489.03;10417322;28;20498;-61
2021/07/04 14:11:45;;;;;;;5.88;3.80;;;;;;;21.31;83.92;99483.44;10425822;22;20044;-57
2021/07/04 14:16:49;;;;;;;4.50;3.53;;;;;;;21.13;81.35;99490.34;10393308;28;20064;-56
2021/07/04 14:21:51;;;;;;;;;;;;;;;21.37;84.94;99488.00;10382927;28;20038;-55
2021/07/04 14:26:52;;;;;;;3.33;3.03;;;;;;;21.56;79.16;99485.44;10350400;28;20342;-55
2021/07/04 14:31:54;;;;;;;3.58;2.92;;;;;;;21.28;78.82;99475.75;10363822;28;20041;-55
2021/07/04 14:36:55;;;;;;;3.60;2.85;;;;;;;21.48;80.73;99473.81;10380722;28;20050;-55
2021/07/04 14:41:57;;;;;;;3.08;2.78;;;;;;;22.05;80.01;99476.69;10367210;28;20053;-57
2021/07/04 14:46:59;;;;;;;4.18;3.00;;;;;;;22.57;78.67;99473.84;10368867;28;20065;-59
2021/07/04 14:52:03;;;;;;;3.60;2.90;;;;;;;22.94;77.51;99463.09;10371233;28;20054;-56
2021/07/04 14:57:07;;;;;;;3.47;1.80;;;;;;;23.09;72.40;99461.91;10371251;28;20133;-56
2021/07/04 15:02:11;;;;;;;2.97;1.70;;;;;;;23.21;70.50;99473.69;10374951;28;20041;-58
2021/07/04 15:07:14;;;;;;;1.52;1.30;;;;;;;23.30;69.93;99460.66;10367336;28;20050;-57
2021/07/04 15:12:17;;;;;;;;;;;;;;;23.47;71.20;99458.16;10362778;28;20125;-56
2021/07/04 15:17:18;;;;;;;2.35;1.65;;;;;;;23.51;69.18;99456.66;10357887;28;19921;-57
2021/07/04 15:22:20;;;;;;;2.72;1.80;;;;;;;23.51;67.29;99512.84;10375903;28;20045;-57
2021/07/04 15:27:21;;;;;;;2.05;1.65;;;;;;;23.27;68.70;99513.50;10378411;28;20037;-55
2021/07/04 15:32:23;;;;;;;2.70;1.25;;;;;;;23.26;66.26;99524.59;10365114;28;20491;-55
2021/07/04 15:37:24;;;;;;;1.80;1.40;;;;;;;23.24;66.14;99518.53;10376846;28;20061;-56
2021/07/04 15:42:31;;;;;;;4.28;2.80;;;;;;;23.05;66.74;99531.25;10364253;28;21364;-58
2021/07/04 15:47:32;;;;;;;3.53;3.03;;;;;;;22.80;70.16;99537.50;10363056;28;20048;-57
2021/07/04 15:52:35;;;;;;;5.55;5.05;;;;;;;22.58;74.67;99546.03;10369053;28;20593;-58
2021/07/04 15:57:37;;;;;;;5.20;4.47;;;;;;;22.49;73.50;99536.50;10362211;28;20068;-59
2021/07/04 16:02:39;;;;;;;3.87;3.57;;;;;;;22.37;74.56;99532.81;10359104;28;20145;-57
2021/07/04 16:07:43;;;;;;;4.03;3.60;;;;;;;22.11;73.48;99502.06;10359853;28;20076;-57
2021/07/04 16:12:47;;;;;;;4.22;3.40;;;;;;;22.09;74.81;99520.44;10341597;28;20139;-57
2021/07/04 16:17:49;;;;;;;4.18;3.80;;;;;;;22.01;75.69;99505.25;10359134;28;20100;-56
2021/07/04 16:22:51;;;;;;;4.07;3.60;;;;;;;22.05;73.75;99508.34;10365223;28;20109;-56
2021/07/04 16:27:52;;;;;;;3.70;3.22;;;;;;;21.97;72.27;99505.91;10363916;28;20550;-57
2021/07/04 16:32:54;;;;;;;3.42;3.13;;;;;;;21.93;72.01;99504.69;10381333;28;20045;-58
2021/07/04 16:37:56;;;;;;;4.22;3.53;;;;;;;21.86;75.58;99464.91;10357963;28;20046;-58
2021/07/04 16:42:59;;;;;;;4.28;3.88;;;;;;;22.22;73.67;99492.44;10365343;28;20046;-55
2021/07/04 16:48:00;;;;;;;6.20;3.53;;;;;;;22.28;74.19;99482.56;10366336;28;20041;-57
2021/07/04 16:53:03;;;;;;;3.35;3.05;;;;;;;22.35;74.33;99483.41;10353223;28;20061;-58
2021/07/04 16:58:05;;;;;;;4.28;3.10;;;;;;;22.31;74.74;99479.44;10357689;28;20048;-56
2021/07/04 17:03:08;;;;;;;4.65;3.05;;;;;;;22.23;72.68;99477.81;10354242;28;20046;-55
2021/07/04 17:08:10;;;;;;;4.00;3.47;;;;;;;22.27;73.69;99472.81;10364563;28;20050;-56
2021/07/04 17:13:12;;;;;;;3.63;3.33;;;;;;;22.35;72.98;99481.53;10359055;28;20784;-57
2021/07/04 17:18:13;;;;;;;3.00;2.78;;;;;;;22.30;71.07;99472.34;10355966;28;20596;-57
2021/07/04 17:23:15;;;;;;;4.93;2.97;;;;;;;22.29;72.13;99470.69;10353029;28;20045;-56
2021/07/04 17:28:17;;;;;;;4.03;2.88;;;;;;;22.16;71.83;99480.59;10361768;28;20056;-55
2021/07/04 17:33:19;;;;;;;4.25;3.33;;;;;;;22.24;73.70;99485.72;10356334;28;20053;-55
2021/07/04 17:38:20;;;;;;;3.50;2.85;;;;;;;22.28;72.08;99485.28;10356348;28;20046;-57
2021/07/04 17:43:22;;;;;;;2.97;2.67;;;;;;;22.15;71.21;99497.88;10360486;28;20068;-55
2021/07/04 17:48:23;;;;;;;4.10;3.30;;;;;;;22.02;73.22;99487.13;10359085;28;20038;-58
2021/07/04 17:53:25;;;;;;;3.35;3.05;;;;;;;22.00;74.08;99495.47;10354211;28;20053;-57
2021/07/04 17:58:27;;;;;;;3.55;3.22;;;;;;;21.98;73.77;99507.56;10354756;28;20383;-57
2021/07/04 18:03:28;;;;;;;6.18;3.35;;;;;;;21.67;74.79;99499.16;10370129;28;20053;-55
2021/07/04 18:08:30;;;;;;;3.38;3.08;;;;;;;21.82;76.05;99514.31;10360453;28;20762;-58
2021/07/04 18:13:32;;;;;;;3.88;3.47;;;;;;;21.77;73.80;99514.97;10360510;28;20128;-57
2021/07/04 18:18:34;;;;;;;3.90;3.40;;;;;;;21.71;76.04;99518.53;10369971;28;20045;-57
2021/07/04 18:23:35;;;;;;;4.20;3.70;;;;;;;21.65;75.67;99532.94;10368872;28;20049;-57
2021/07/04 18:28:38;;;;;;;4.30;3.95;;;;;;;21.58;78.07;99521.28;10375676;28;20053;-57
2021/07/04 18:33:41;;;;;;;3.50;3.20;;;;;;;21.62;78.21;99525.22;10371764;28;20198;-57
2021/07/04 18:38:44;;;;;;;4.35;3.95;;;;;;;21.54;78.11;99513.59;10376365;28;20096;-56
2021/07/04 18:43:45;;;;;;;8.07;4.03;;;;;;;21.48;78.64;99522.53;10368296;28;20046;-59
2021/07/04 18:48:47;;;;;;;4.32;3.60;;;;;;;21.45;78.81;99535.66;10372040;28;20457;-58
2021/07/04 18:53:53;;;;;;;4.10;3.70;;;;;;;21.45;78.86;99535.66;10368480;28;20137;-59
2021/07/04 18:58:54;;;;;;;3.75;3.45;;;;;;;21.42;79.19;99536.91;10360214;28;20058;-56
2021/07/04 19:04:01;;;;;;;3.65;2.70;;;;;;;21.37;77.29;99542.94;10370856;28;20525;-58
2021/07/04 19:09:08;;;;;;;4.95;2.55;;;;;;;21.31;77.11;99541.09;10354661;28;20145;-56
2021/07/04 19:14:10;;;;;;;2.00;1.38;;;;;;;21.30;73.33;99541.31;10372562;28;20049;-54
2021/07/04 19:19:14;;;;;;;1.10;0.65;;;;;;;21.18;71.98;99560.06;10369531;28;20495;-57
2021/07/04 19:24:16;;;;;;;1.73;0.47;;;;;;;21.05;70.70;99569.03;10374336;28;20050;-62
2021/07/04 19:29:17;;;;;;;1.15;0.80;;;;;;;21.07;73.73;99560.72;10353796;28;20082;-56
2021/07/04 19:34:19;;;;;;;1.27;0.80;;;;;;;20.99;76.30;99559.88;10360135;28;20148;-55
2021/07/04 19:39:40;;;;;;;0.70;0.60;;;;;;;20.89;72.76;99569.44;10361477;28;20116;-58
2021/07/04 19:44:43;;;;;;;1.38;0.70;;;;;;;20.86;74.91;99577.97;10366265;28;20076;-57
2021/07/04 19:49:45;;;;;;;1.77;0.60;;;;;;;20.85;71.88;99579.84;10379427;28;20057;-55
2021/07/04 19:54:47;;;;;;;1.55;1.25;;;;;;;20.69;69.89;99588.34;10362877;28;20375;-56
2021/07/04 19:59:49;;;;;;;2.53;1.17;;;;;;;20.28;71.18;99587.38;10362628;28;20050;-57
2021/07/04 20:04:51;;;;;;;1.85;0.80;;;;;;;20.02;70.93;99604.34;10373676;28;20046;-59
2021/07/04 20:09:53;;;;;;;1.10;0.60;;;;;;;19.90;72.11;99613.00;10379446;28;20042;-55
2021/07/04 20:14:55;;;;;;;3.55;1.00;;;;;;;19.88;71.25;99630.47;10423549;22;20045;-60
2021/07/04 20:19:58;;;;;;;1.50;0.57;;;;;;;19.77;70.87;99624.59;10426917;28;20647;-60
2021/07/04 20:24:59;;;;;;;2.43;0.80;;;;;;;19.54;71.48;99640.19;10411133;28;20059;-60
2021/07/04 20:30:02;;;;;;;0.80;0.55;;;;;;;19.43;71.59;99647.78;10427094;28;20764;-59
2021/07/04 20:35:05;;;;;;;3.23;1.00;;;;;;;19.26;72.53;99641.03;10410757;28;20053;-59
2021/07/04 20:40:08;;;;;;;2.00;0.90;;;;;;;19.21;72.64;99654.25;10427598;28;20068;-59
2021/07/04 20:45:10;;;;;;;1.20;0.70;;;;;;;19.25;73.18;99647.44;10427721;28;20659;-59
2021/07/04 20:50:14;;;;;;;1.60;0.60;;;;;;;19.26;73.80;99641.03;10425248;28;20052;-60
2021/07/04 20:55:16;;;;;;;3.38;1.00;;;;;;;19.03;73.83;99633.97;10426421;28;20041;-60
2021/07/04 21:00:19;;;;;;;3.67;1.10;;;;;;;19.01;75.11;99635.22;10423766;28;20045;-63
2021/07/04 21:05:21;;;;;;;2.08;1.25;;;;;;;18.90;75.15;99658.13;10407100;28;20048;-60
2021/07/04 21:10:24;;;;;;;2.15;1.10;;;;;;;18.86;76.01;99652.28;10424385;28;20053;-60
2021/07/04 21:15:27;;;;;;;2.80;1.27;;;;;;;18.91;76.77;99654.41;10407519;28;20049;-60
2021/07/04 21:20:28;;;;;;;2.35;1.02;;;;;;;18.90;77.09;99658.97;10423678;28;20047;-60
2021/07/04 21:25:30;;;;;;;2.03;1.30;;;;;;;18.83;77.09;99658.03;10424520;28;20071;-59
2021/07/04 21:30:33;;;;;;;2.05;1.27;;;;;;;18.72;77.74;99667.47;10423963;28;20056;-60
2021/07/04 21:35:36;;;;;;;1.50;1.27;;;;;;;18.66;78.28;99661.97;10423504;28;20079;-61
2021/07/04 21:40:37;;;;;;;2.15;1.38;;;;;;;18.72;79.86;99672.03;10420350;28;20111;-59
2021/07/04 21:45:39;;;;;;;2.38;1.50;;;;;;;18.62;79.02;99671.50;10423979;28;20056;-61
2021/07/04 21:50:41;;;;;;;1.63;1.13;;;;;;;18.57;79.82;99663.97;10423031;28;20079;-63
2021/07/04 21:55:42;;;;;;;1.80;1.48;;;;;;;18.53;80.12;99674.28;10423764;28;20041;-60
2021/07/04 22:00:44;;;;;;;2.63;1.50;;;;;;;18.48;80.26;99683.97;10407820;28;20055;-61
2021/07/04 22:05:51;;;;;;;2.10;1.90;;;;;;;18.50;80.83;99687.31;10423272;28;20436;-58
2021/07/04 22:10:53;;;;;;;2.05;1.45;;;;;;;18.49;81.16;99691.84;10422286;28;20040;-61
2021/07/04 22:15:55;;;;;;;3.67;1.55;;;;;;;18.46;81.49;99686.00;10422085;28;20080;-61
2021/07/04 22:20:57;;;;;;;2.30;1.60;;;;;;;18.43;82.98;99684.53;10422142;28;20079;-59
2021/07/04 22:25:59;;;;;;;2.50;1.95;;;;;;;18.47;81.83;99695.78;10427760;28;20277;-59
2021/07/04 22:31:01;;;;;;;2.88;2.00;;;;;;;18.44;82.78;99688.06;10425268;28;20041;-60
2021/07/04 22:36:03;;;;;;;3.00;1.80;;;;;;;18.38;82.84;99684.28;10423428;28;20056;-60
2021/07/04 22:41:05;;;;;;;2.28;1.75;;;;;;;18.28;82.75;99689.94;10421968;28;20120;-59
2021/07/04 22:46:07;;;;;;;4.03;1.88;;;;;;;18.26;83.43;99689.28;10422345;28;20041;-60
2021/07/04 22:51:10;;;;;;;2.88;1.90;;;;;;;18.29;82.84;99686.22;10421787;28;20057;-60
2021/07/04 22:56:11;;;;;;;2.15;1.67;;;;;;;18.30;83.32;99687.91;10432118;28;20052;-59
2021/07/04 23:01:20;;;;;;;2.95;1.88;;;;;;;18.13;83.94;99683.72;10438262;28;20059;-60
2021/07/04 23:06:22;;;;;;;2.78;2.10;;;;;;;18.08;84.52;99696.94;10411740;28;20061;-61
2021/07/04 23:11:24;;;;;;;7.97;3.95;;;;;;;17.91;85.22;99691.72;10428858;28;20045;-61
2021/07/04 23:16:25;;;;;;;5.20;1.80;;;;;;;17.85;86.18;99700.53;10427890;28;20472;-61
2021/07/04 23:21:27;;;;;;;5.55;2.83;;;;;;;17.87;86.03;99701.16;10427954;28;20066;-60
2021/07/04 23:26:29;;;;;;;2.38;1.90;;;;;;;17.94;86.34;99696.75;10410833;28;20052;-60
2021/07/04 23:31:30;;;;;;;3.88;2.00;;;;;;;17.77;86.29;99703.28;10431374;28;21035;-60